createdAt,value
2019-02-26T00:00:51.852Z,93.82
2019-02-26T00:01:52.932Z,93.68
2019-02-26T00:07:16.271Z,94.59
2019-02-26T00:08:19.440Z,92.29
2019-02-26T00:09:20.522Z,93.05
2019-02-26T00:10:22.285Z,92.67
2019-02-26T00:11:19.628Z,92.43
2019-02-26T00:12:22.268Z,92.96
2019-02-26T00:13:23.365Z,93.05
2019-02-26T00:14:24.901Z,92.96
2019-02-26T00:15:24.985Z,92.67
2019-02-26T00:16:25.558Z,93.63
2019-02-26T00:17:26.126Z,93.92
2019-02-26T00:18:26.695Z,93.39
2019-02-26T00:20:15.058Z,92.91
2019-02-26T00:21:14.629Z,92.91
2019-02-26T00:22:15.978Z,92.14
2019-02-26T00:23:16.756Z,91.96
2019-02-26T00:24:17.325Z,92.33
2019-02-26T00:25:20.230Z,91.76
2019-02-26T00:26:20.656Z,92.33
2019-02-26T00:27:20.110Z,92.05
2019-02-26T00:28:22.088Z,92.14
2019-02-26T00:29:23.299Z,93.59
2019-02-26T00:30:23.953Z,93.59
2019-02-26T00:31:26.124Z,92.63
2019-02-26T00:32:26.287Z,93.97
2019-02-26T00:33:28.852Z,93.39
2019-02-26T00:34:30.492Z,92.53
2019-02-26T00:35:29.985Z,92.82
2019-02-26T00:36:31.584Z,92.91
2019-02-26T00:37:32.123Z,92.82
2019-02-26T00:38:33.613Z,93.10
2019-02-26T00:39:34.251Z,92.91
2019-02-26T00:40:36.664Z,93.01
2019-02-26T00:41:35.835Z,93.01
2019-02-26T00:42:36.392Z,92.72
2019-02-26T00:43:37.101Z,93.59
2019-02-26T00:44:37.570Z,92.91
2019-02-26T00:45:39.107Z,93.20
2019-02-26T00:46:39.700Z,92.91
2019-02-26T00:47:41.180Z,92.72
2019-02-26T00:48:43.130Z,91.76
2019-02-26T00:49:44.170Z,91.66
2019-02-26T00:50:45.057Z,92.24
2019-02-26T00:51:46.520Z,92.91
2019-02-26T00:52:47.188Z,93.97
2019-02-26T00:55:29.365Z,93.97
2019-02-26T00:56:29.833Z,94.16
2019-02-26T00:57:29.470Z,92.91
2019-02-26T00:58:32.094Z,92.72
2019-02-26T00:59:32.268Z,92.72
2019-02-26T01:00:33.742Z,93.06
2019-02-26T01:01:34.398Z,92.24
2019-02-26T01:05:45.624Z,92.43
2019-02-26T01:06:46.240Z,93.59
2019-02-26T01:07:49.347Z,92.53
2019-02-26T01:08:48.369Z,92.91
2019-02-26T01:09:50.272Z,93.10
2019-02-26T01:10:50.499Z,93.44
2019-02-26T01:11:51.955Z,94.54
2019-02-26T01:12:52.629Z,94.74
2019-02-26T01:17:12.651Z,93.92
2019-02-26T01:18:13.422Z,93.54
2019-02-26T01:19:15.352Z,93.54
2019-02-26T01:20:15.603Z,95.84
2019-02-26T01:21:16.170Z,94.83
2019-02-26T01:22:16.739Z,94.40
2019-02-26T01:23:21.067Z,94.74
2019-02-26T01:24:18.010Z,94.59
2019-02-26T01:25:22.332Z,95.12
2019-02-26T01:26:20.142Z,95.17
2019-02-26T01:27:20.755Z,96.08
2019-02-26T01:28:22.536Z,94.93
2019-02-26T01:33:46.382Z,93.73
2019-02-26T01:34:47.819Z,94.59
2019-02-26T01:35:47.791Z,95.79
2019-02-26T01:36:49.582Z,94.79
2019-02-26T01:37:51.465Z,93.54
2019-02-26T01:38:53.116Z,92.58
2019-02-26T01:39:53.863Z,92.77
2019-02-26T01:40:55.968Z,93.25
2019-02-26T01:41:58.290Z,93.35
2019-02-26T01:42:57.930Z,92.86
2019-02-26T01:43:58.437Z,92.86
2019-02-26T01:44:59.004Z,92.86
2019-02-26T01:45:59.573Z,92.48
2019-02-26T01:47:02.483Z,93.54
2019-02-26T01:48:01.700Z,93.54
2019-02-26T01:49:04.232Z,94.31
2019-02-26T01:50:04.618Z,94.02
2019-02-26T01:51:10.451Z,93.54
2019-02-26T01:52:12.715Z,92.68
2019-02-26T01:53:14.520Z,92.77
2019-02-26T01:55:28.651Z,93.82
2019-02-26T01:56:29.270Z,93.06
2019-02-26T01:57:29.842Z,92.86
2019-02-26T01:58:33.460Z,92.19
2019-02-26T01:59:34.505Z,92.96
2019-02-26T02:00:33.588Z,92.86
2019-02-26T02:01:34.151Z,93.73
2019-02-26T02:02:34.720Z,93.92
2019-02-26T02:03:35.340Z,93.44
2019-02-26T02:04:37.067Z,93.06
2019-02-26T02:05:37.473Z,93.73
2019-02-26T02:06:39.257Z,93.82
2019-02-26T02:07:38.646Z,93.54
2019-02-26T02:08:41.627Z,94.21
2019-02-26T02:21:12.980Z,95.07
2019-02-26T02:23:15.374Z,95.17
2019-02-26T02:24:17.563Z,95.26
2019-02-26T02:26:09.397Z,96.22
2019-02-26T02:27:08.015Z,97.86
2019-02-26T02:29:12.670Z,97.76
2019-02-26T02:30:18.528Z,96.51
2019-02-26T02:31:12.317Z,97.56
2019-02-26T02:32:12.899Z,98.72
2019-02-26T02:33:17.279Z,99.10
2019-02-26T02:34:15.109Z,97.86
2019-02-26T02:35:18.935Z,95.84
2019-02-26T02:36:17.729Z,99.49
2019-02-26T02:37:19.806Z,99.99
2019-02-26T02:38:20.412Z,98.62
2019-02-26T02:39:20.876Z,99.99
2019-02-26T02:40:21.576Z,98.43
2019-02-26T02:41:51.357Z,97.86
2019-02-26T02:42:49.597Z,99.99
2019-02-26T02:43:50.188Z,99.99
2019-02-26T02:46:17.953Z,98.91
2019-02-26T02:48:45.715Z,99.77
2019-02-26T02:50:20.073Z,99.99
2019-02-26T02:53:37.665Z,99.99
2019-02-26T02:54:39.264Z,99.99
2019-02-26T02:55:40.253Z,99.99
2019-02-26T02:56:45.515Z,99.99
2019-02-26T02:57:48.700Z,99.99
2019-02-26T02:58:49.510Z,99.99
2019-02-26T02:59:49.276Z,99.99
2019-02-26T03:00:52.220Z,99.99
2019-02-26T03:01:52.745Z,99.99
2019-02-26T03:03:56.435Z,99.99
2019-02-26T03:04:56.106Z,99.99
2019-02-26T03:05:58.343Z,99.99
2019-02-26T03:07:12.051Z,99.99
2019-02-26T03:14:39.197Z,99.99
2019-02-26T03:18:32.502Z,99.99
2019-02-26T03:23:28.806Z,99.99
2019-02-26T03:24:51.356Z,99.99
2019-02-26T03:25:52.253Z,99.99
2019-02-26T03:26:51.824Z,99.99
2019-02-26T03:27:52.397Z,99.99
2019-02-26T03:28:53.347Z,99.99
2019-02-26T03:29:56.242Z,99.99
2019-02-26T03:30:55.174Z,99.99
2019-02-26T03:31:55.771Z,99.99
2019-02-26T03:33:02.872Z,99.99
2019-02-26T03:34:04.183Z,99.99
2019-02-26T03:35:02.097Z,99.99
2019-02-26T03:36:01.094Z,99.99
2019-02-26T03:37:03.855Z,99.99
2019-02-26T03:38:03.620Z,99.99
2019-02-26T03:39:04.282Z,99.99
2019-02-26T03:40:06.561Z,98.43
2019-02-26T03:41:06.426Z,99.99
2019-02-26T03:42:08.226Z,97.38
2019-02-26T03:43:10.301Z,98.33
2019-02-26T03:44:10.184Z,96.51
2019-02-26T03:45:10.759Z,96.99
2019-02-26T03:46:11.342Z,95.36
2019-02-26T03:47:11.910Z,94.49
2019-02-26T03:48:12.486Z,95.55
2019-02-26T03:49:13.112Z,96.89
2019-02-26T03:51:17.824Z,94.79
2019-02-26T03:52:16.816Z,95.17
2019-02-26T03:53:17.388Z,97.28
2019-02-26T03:54:17.992Z,98.24
2019-02-26T03:55:19.215Z,98.53
2019-02-26T03:56:20.553Z,95.07
2019-02-26T03:57:22.720Z,94.69
2019-02-26T03:58:22.782Z,94.79
2019-02-26T03:59:23.349Z,95.07
2019-02-26T04:00:23.915Z,95.94
2019-02-26T04:01:24.483Z,94.59
2019-02-26T04:02:25.102Z,94.59
2019-02-26T04:03:25.670Z,94.69
2019-02-26T04:04:28.469Z,94.31
2019-02-26T04:05:27.798Z,93.73
2019-02-26T04:06:30.509Z,94.40
2019-02-26T04:07:30.267Z,94.69
2019-02-26T04:08:31.540Z,94.59
2019-02-26T04:09:32.157Z,94.59
2019-02-26T04:10:32.725Z,94.21
2019-02-26T04:11:33.295Z,94.12
2019-02-26T04:12:39.289Z,94.49
2019-02-26T04:13:35.425Z,94.40
2019-02-26T04:14:35.995Z,93.35
2019-02-26T04:15:38.351Z,94.69
2019-02-26T04:16:40.430Z,94.59
2019-02-26T04:17:40.140Z,94.21
2019-02-26T04:18:40.301Z,94.59
2019-02-26T04:19:43.544Z,94.69
2019-02-26T04:20:44.261Z,94.98
2019-02-26T04:21:44.032Z,94.40
2019-02-26T04:22:48.981Z,95.07
2019-02-26T04:23:46.725Z,95.07
2019-02-26T04:24:47.284Z,96.80
2019-02-26T04:25:49.480Z,96.51
2019-02-26T04:26:49.468Z,95.65
2019-02-26T04:27:50.077Z,96.70
2019-02-26T04:28:50.696Z,98.24
2019-02-26T04:29:51.265Z,96.22
2019-02-26T04:30:52.476Z,94.98
2019-02-26T04:31:54.762Z,98.53
2019-02-26T04:32:54.624Z,96.70
2019-02-26T04:33:55.903Z,96.32
2019-02-26T04:34:59.077Z,96.80
2019-02-26T04:35:56.459Z,96.03
2019-02-26T04:36:59.035Z,97.76
2019-02-26T04:38:00.904Z,99.01
2019-02-26T04:39:00.157Z,99.58
2019-02-26T04:40:02.375Z,98.05
2019-02-26T04:41:03.079Z,98.05
2019-02-26T04:42:05.520Z,97.76
2019-02-26T04:43:05.227Z,99.01
2019-02-26T04:44:06.318Z,99.58
2019-02-26T04:45:09.076Z,97.95
2019-02-26T04:46:10.901Z,99.68
2019-02-26T04:47:09.115Z,96.80
2019-02-26T04:48:09.684Z,96.89
2019-02-26T04:49:10.254Z,95.94
2019-02-26T04:50:10.873Z,94.59
2019-02-26T04:51:11.442Z,94.31
2019-02-26T04:52:14.279Z,94.79
2019-02-26T04:57:09.668Z,96.61
2019-02-26T04:58:12.224Z,98.43
2019-02-26T04:59:12.571Z,99.20
2019-02-26T05:00:13.355Z,99.99
2019-02-26T05:01:16.417Z,99.99
2019-02-26T05:02:15.483Z,99.99
2019-02-26T05:03:18.097Z,99.99
2019-02-26T05:04:17.661Z,99.99
2019-02-26T05:06:19.797Z,99.99
2019-02-26T05:07:20.405Z,99.99
2019-02-26T05:08:20.970Z,99.99
2019-02-26T05:09:22.230Z,99.99
2019-02-26T05:10:24.373Z,99.99
2019-02-26T05:11:31.687Z,99.99
2019-02-26T05:12:28.707Z,99.99
2019-02-26T05:13:30.202Z,99.99
2019-02-26T05:14:29.400Z,99.99
2019-02-26T05:15:30.939Z,99.99
2019-02-26T05:16:34.571Z,99.99
2019-02-26T05:17:33.463Z,99.99
2019-02-26T05:18:34.619Z,99.99
2019-02-26T05:19:36.508Z,99.99
2019-02-26T05:20:36.788Z,99.99
2019-02-26T05:21:37.970Z,99.99
2019-02-26T05:22:38.531Z,99.99
2019-02-26T05:23:39.098Z,99.99
2019-02-26T05:24:42.427Z,99.99
2019-02-26T05:25:43.012Z,99.99
2019-02-26T05:26:42.843Z,99.99
2019-02-26T05:27:46.160Z,99.99
2019-02-26T05:28:46.403Z,99.99
2019-02-26T05:29:46.572Z,99.99
2019-02-26T05:30:49.494Z,99.99
2019-02-26T05:31:48.907Z,98.72
2019-02-26T05:32:51.930Z,99.87
2019-02-26T05:33:52.510Z,99.53
2019-02-26T05:34:52.601Z,99.99
2019-02-26T05:36:08.671Z,99.99
2019-02-26T05:37:11.004Z,99.15
2019-02-26T05:38:10.055Z,99.05
2019-02-26T05:39:10.626Z,99.99
2019-02-26T05:40:13.339Z,99.99
2019-02-26T05:41:12.804Z,99.99
2019-02-26T05:42:13.374Z,99.99
2019-02-26T05:43:13.941Z,99.99
2019-02-26T05:44:14.567Z,99.99
2019-02-26T05:45:15.160Z,99.99
2019-02-26T05:46:16.798Z,99.99
2019-02-26T05:47:19.278Z,99.99
2019-02-26T05:48:21.155Z,99.99
2019-02-26T05:49:20.465Z,99.99
2019-02-26T05:50:21.031Z,99.99
2019-02-26T05:51:21.614Z,99.99
2019-02-26T05:52:24.313Z,99.99
2019-02-26T05:53:23.733Z,99.99
2019-02-26T05:54:24.544Z,99.99
2019-02-26T05:55:25.618Z,99.99
2019-02-26T05:56:26.722Z,99.99
2019-02-26T05:57:32.357Z,99.99
2019-02-26T05:58:28.852Z,99.99
2019-02-26T05:59:29.474Z,99.99
2019-02-26T06:00:33.193Z,99.99
2019-02-26T06:01:31.602Z,99.99
2019-02-26T06:02:32.170Z,99.99
2019-02-26T06:03:32.739Z,99.99
2019-02-26T06:04:35.170Z,99.99
2019-02-26T06:05:33.965Z,99.99
2019-02-26T06:06:34.535Z,99.99
2019-02-26T06:07:36.795Z,99.99
2019-02-26T06:08:39.275Z,99.99
2019-02-26T06:09:38.227Z,99.99
2019-02-26T06:10:38.844Z,99.99
2019-02-26T06:11:41.813Z,99.99
2019-02-26T06:12:43.808Z,99.99
2019-02-26T06:13:43.257Z,99.99
2019-02-26T06:14:43.143Z,98.57
2019-02-26T06:15:43.713Z,97.61
2019-02-26T06:16:46.202Z,96.08
2019-02-26T06:17:48.154Z,96.37
2019-02-26T06:18:49.101Z,97.71
2019-02-26T06:19:48.009Z,99.99
2019-02-26T06:20:50.879Z,99.99
2019-02-26T06:21:52.520Z,99.99
2019-02-26T06:22:51.752Z,99.99
2019-02-26T06:23:52.322Z,99.99
2019-02-26T06:24:57.234Z,99.99
2019-02-26T06:25:55.999Z,99.99
2019-02-26T06:26:56.108Z,99.99
2019-02-26T06:27:56.681Z,98.48
2019-02-26T06:28:57.251Z,99.99
2019-02-26T06:30:00.136Z,99.99
2019-02-26T06:30:58.517Z,98.19
2019-02-26T06:32:01.327Z,99.15
2019-02-26T06:33:04.375Z,97.52
2019-02-26T06:34:06.435Z,96.66
2019-02-26T06:35:06.686Z,97.81
2019-02-26T06:36:07.187Z,99.63
2019-02-26T06:37:09.463Z,99.53
2019-02-26T06:38:11.245Z,99.05
2019-02-26T06:39:10.883Z,98.57
2019-02-26T06:40:11.458Z,99.73
2019-02-26T06:41:12.023Z,99.99
2019-02-26T06:42:14.416Z,99.99
2019-02-26T06:43:14.150Z,99.99
2019-02-26T06:44:14.811Z,99.99
2019-02-26T06:45:16.569Z,99.24
2019-02-26T06:46:16.941Z,98.28
2019-02-26T06:47:17.515Z,97.52
2019-02-26T06:48:20.178Z,96.56
2019-02-26T06:49:20.713Z,98.28
2019-02-26T06:50:20.305Z,99.44
2019-02-26T06:51:22.097Z,97.61
2019-02-26T06:52:22.432Z,99.24
2019-02-26T06:53:23.003Z,97.52
2019-02-26T06:54:24.952Z,99.99
2019-02-26T06:55:25.131Z,98.28
2019-02-26T06:56:25.748Z,99.99
2019-02-26T06:57:26.317Z,99.99
2019-02-26T06:58:26.893Z,98.28
2019-02-26T06:59:29.368Z,99.99
2019-02-26T07:00:29.484Z,98.10
2019-02-26T07:01:32.342Z,99.99
2019-02-26T07:02:31.629Z,99.24
2019-02-26T07:03:32.198Z,97.90
2019-02-26T07:04:32.765Z,99.99
2019-02-26T07:05:33.333Z,97.52
2019-02-26T07:06:34.896Z,98.48
2019-02-26T07:07:35.466Z,99.99
2019-02-26T07:08:36.032Z,99.99
2019-02-26T07:09:37.383Z,99.99
2019-02-26T07:10:38.164Z,98.57
2019-02-26T07:11:38.785Z,99.99
2019-02-26T07:12:41.318Z,99.05
2019-02-26T07:13:43.407Z,98.48
2019-02-26T07:14:41.520Z,98.28
2019-02-26T07:15:43.004Z,97.61
2019-02-26T07:16:42.756Z,99.39
2019-02-26T07:17:46.039Z,99.99
2019-02-26T07:18:43.911Z,99.99
2019-02-26T07:19:44.480Z,98.96
2019-02-26T07:20:49.182Z,99.29
2019-02-26T07:21:48.087Z,98.19
2019-02-26T07:22:49.626Z,99.34
2019-02-26T07:23:51.632Z,99.99
2019-02-26T07:24:51.968Z,99.99
2019-02-26T07:25:52.854Z,99.99
2019-02-26T07:26:53.424Z,99.99
2019-02-26T07:27:55.830Z,99.99
2019-02-26T07:28:55.553Z,99.99
2019-02-26T07:29:56.122Z,99.58
2019-02-26T07:30:56.690Z,97.47
2019-02-26T07:31:58.903Z,98.00
2019-02-26T07:32:58.973Z,97.81
2019-02-26T07:34:01.330Z,98.91
2019-02-26T07:35:01.202Z,99.99
2019-02-26T07:36:04.056Z,99.99
2019-02-26T07:37:04.123Z,99.99
2019-02-26T07:38:03.957Z,99.99
2019-02-26T07:39:05.128Z,99.99
2019-02-26T07:40:08.154Z,99.99
2019-02-26T07:41:07.387Z,99.99
2019-02-26T07:42:09.257Z,99.99
2019-02-26T07:43:15.454Z,99.99
2019-02-26T07:44:18.880Z,99.99
2019-02-26T07:45:19.856Z,99.99
2019-02-26T07:46:21.084Z,99.99
2019-02-26T07:47:22.113Z,99.99
2019-02-26T07:48:23.804Z,99.99
2019-02-26T07:49:23.998Z,99.99
2019-02-26T07:50:24.568Z,99.99
2019-02-26T07:51:25.138Z,99.99
2019-02-26T07:52:26.598Z,99.99
2019-02-26T07:53:27.358Z,99.99
2019-02-26T07:54:28.827Z,99.99
2019-02-26T07:55:30.800Z,99.99
2019-02-26T07:56:32.750Z,99.99
2019-02-26T07:57:32.613Z,99.91
2019-02-26T07:58:38.956Z,99.99
2019-02-26T07:59:39.701Z,99.99
2019-02-26T08:00:42.474Z,99.99
2019-02-26T08:01:42.961Z,99.99
2019-02-26T08:02:43.527Z,99.99
2019-02-26T08:03:46.419Z,99.99
2019-02-26T08:04:45.658Z,98.43
2019-02-26T08:05:46.225Z,96.66
2019-02-26T08:06:46.794Z,97.66
2019-02-26T08:07:48.543Z,99.48
2019-02-26T08:08:49.028Z,99.99
2019-02-26T08:09:49.556Z,99.99
2019-02-26T08:10:50.772Z,98.96
2019-02-26T08:11:50.880Z,99.99
2019-02-26T08:12:58.520Z,99.99
2019-02-26T08:13:59.250Z,99.99
2019-02-26T08:14:59.577Z,99.99
2019-02-26T08:16:02.326Z,99.99
2019-02-26T08:17:03.822Z,99.99
2019-02-26T08:18:03.467Z,99.99
2019-02-26T08:19:04.027Z,99.99
2019-02-26T08:20:07.385Z,99.99
2019-02-26T08:21:06.159Z,99.99
2019-02-26T08:22:06.725Z,99.99
2019-02-26T08:23:07.294Z,99.91
2019-02-26T08:24:07.863Z,99.99
2019-02-26T08:25:08.433Z,99.99
2019-02-26T08:26:09.050Z,99.99
2019-02-26T08:27:11.611Z,99.99
2019-02-26T08:28:13.016Z,99.99
2019-02-26T08:29:12.742Z,99.99
2019-02-26T08:30:14.826Z,99.99
2019-02-26T08:31:16.053Z,99.99
2019-02-26T08:32:18.153Z,99.99
2019-02-26T08:33:17.047Z,99.99
2019-02-26T08:34:17.612Z,99.99
2019-02-26T08:35:18.951Z,99.99
2019-02-26T08:36:19.594Z,99.99
2019-02-26T08:37:20.156Z,99.99
2019-02-26T08:38:20.724Z,99.99
2019-02-26T08:39:21.293Z,99.99
2019-02-26T08:40:21.860Z,99.99
2019-02-26T08:41:22.430Z,99.99
2019-02-26T08:42:23.423Z,99.99
2019-02-26T08:43:23.939Z,99.99
2019-02-26T08:44:24.558Z,99.99
2019-02-26T08:45:25.744Z,99.99
2019-02-26T08:46:26.575Z,99.99
2019-02-26T08:47:27.139Z,99.99
2019-02-26T08:48:27.707Z,99.99
2019-02-26T08:49:28.276Z,99.99
2019-02-26T08:50:33.103Z,99.99
2019-02-26T08:51:30.459Z,99.99
2019-02-26T08:52:31.027Z,99.15
2019-02-26T08:53:31.728Z,98.00
2019-02-26T08:54:33.211Z,96.08
2019-02-26T08:55:33.816Z,95.98
2019-02-26T08:56:36.294Z,96.37
2019-02-26T08:57:35.950Z,99.99
2019-02-26T08:58:36.520Z,99.99
2019-02-26T08:59:37.138Z,98.28
2019-02-26T09:00:37.709Z,97.71
2019-02-26T09:01:38.278Z,96.56
2019-02-26T09:02:38.854Z,95.79
2019-02-26T09:03:40.863Z,95.41
2019-02-26T09:04:42.660Z,94.64
2019-02-26T09:05:42.592Z,99.34
2019-02-26T09:06:43.161Z,96.66
2019-02-26T09:07:45.589Z,97.71
2019-02-26T09:08:45.293Z,99.63
2019-02-26T09:09:47.675Z,93.97
2019-02-26T09:11:50.384Z,97.23
2019-02-26T09:12:51.958Z,98.19
2019-02-26T09:13:52.114Z,95.51
2019-02-26T09:14:52.683Z,92.82
2019-02-26T09:15:55.149Z,94.93
2019-02-26T09:16:56.858Z,91.67
2019-02-26T09:17:56.430Z,89.94
2019-02-26T09:18:57.002Z,90.33
2019-02-26T09:20:06.982Z,93.78
2019-02-26T09:20:59.135Z,95.79
2019-02-26T09:21:59.705Z,93.11
2019-02-26T09:23:01.464Z,94.17
2019-02-26T09:24:04.661Z,93.11
2019-02-26T09:25:03.502Z,94.64
2019-02-26T09:26:05.144Z,92.72
2019-02-26T09:27:05.633Z,93.68
2019-02-26T09:28:06.203Z,93.49
2019-02-26T09:29:06.828Z,93.78
2019-02-26T09:30:08.523Z,94.54
2019-02-26T09:31:09.626Z,94.07
2019-02-26T09:32:11.737Z,93.88
2019-02-26T09:33:12.086Z,93.78
2019-02-26T09:34:12.706Z,93.49
2019-02-26T09:35:13.324Z,93.30
2019-02-26T09:36:15.730Z,93.59
2019-02-26T09:37:15.457Z,93.59
2019-02-26T09:38:17.693Z,92.44
2019-02-26T09:39:17.588Z,91.09
2019-02-26T09:40:20.272Z,92.72
2019-02-26T09:41:21.465Z,92.72
2019-02-26T09:42:23.160Z,92.34
2019-02-26T09:43:24.484Z,92.82
2019-02-26T09:44:26.153Z,92.34
2019-02-26T09:45:26.896Z,92.82
2019-02-26T09:46:26.582Z,92.15
2019-02-26T09:47:30.383Z,91.96
2019-02-26T09:48:28.763Z,91.67
2019-02-26T09:49:32.758Z,92.19
2019-02-26T09:50:30.895Z,91.72
2019-02-26T09:51:33.008Z,91.72
2019-02-26T09:52:32.712Z,91.00
2019-02-26T09:53:33.353Z,91.62
2019-02-26T09:54:37.766Z,91.62
2019-02-26T09:55:35.535Z,91.14
2019-02-26T09:56:36.105Z,89.22
2019-02-26T09:57:36.676Z,89.99
2019-02-26T09:58:39.803Z,90.85
2019-02-26T09:59:38.810Z,90.47
2019-02-26T10:00:40.574Z,90.47
2019-02-26T10:01:42.838Z,89.89
2019-02-26T10:02:44.268Z,89.61
2019-02-26T10:03:44.069Z,87.78
2019-02-26T10:04:45.518Z,89.12
2019-02-26T10:05:48.204Z,89.99
2019-02-26T10:06:47.815Z,89.89
2019-02-26T10:07:48.386Z,89.61
2019-02-26T10:08:50.821Z,89.79
2019-02-26T10:09:49.564Z,88.93
2019-02-26T10:10:51.942Z,89.22
2019-02-26T10:11:51.737Z,89.12
2019-02-26T10:12:54.330Z,89.89
2019-02-26T10:13:53.893Z,89.32
2019-02-26T10:14:55.359Z,89.41
2019-02-26T10:15:58.593Z,89.61
2019-02-26T10:16:57.639Z,89.70
2019-02-26T10:18:00.893Z,89.61
2019-02-26T10:18:59.772Z,89.70
2019-02-26T10:20:01.927Z,89.79
2019-02-26T10:21:01.963Z,90.18
2019-02-26T10:22:03.558Z,89.89
2019-02-26T10:23:06.206Z,89.51
2019-02-26T10:24:04.727Z,89.51
2019-02-26T10:25:05.318Z,89.89
2019-02-26T10:26:07.804Z,89.79
2019-02-26T10:27:09.389Z,90.47
2019-02-26T10:28:11.516Z,90.08
2019-02-26T10:29:09.675Z,90.28
2019-02-26T10:30:13.012Z,90.47
2019-02-26T10:31:11.810Z,90.37
2019-02-26T10:32:12.378Z,90.37
2019-02-26T10:33:17.315Z,90.28
2019-02-26T10:34:15.748Z,90.56
2019-02-26T10:35:18.631Z,90.66
2019-02-26T10:36:18.384Z,89.99
2019-02-26T10:37:19.074Z,90.52
2019-02-26T10:38:19.647Z,90.28
2019-02-26T10:39:21.404Z,90.37
2019-02-26T10:40:21.786Z,90.61
2019-02-26T10:41:22.355Z,90.56
2019-02-26T10:42:22.926Z,90.42
2019-02-26T10:43:23.547Z,90.32
2019-02-26T10:44:24.115Z,90.52
2019-02-26T10:45:24.689Z,90.90
2019-02-26T10:46:25.256Z,90.80
2019-02-26T10:47:27.432Z,91.09
2019-02-26T10:48:27.921Z,91.19
2019-02-26T10:49:28.800Z,90.90
2019-02-26T10:50:31.762Z,91.19
2019-02-26T10:51:30.995Z,90.52
2019-02-26T10:52:31.610Z,90.99
2019-02-26T10:53:32.180Z,91.28
2019-02-26T10:54:39.530Z,91.09
2019-02-26T10:55:38.749Z,91.09
2019-02-26T10:56:39.206Z,91.09
2019-02-26T10:57:38.496Z,91.09
2019-02-26T10:58:39.054Z,91.09
2019-02-26T10:59:41.853Z,91.19
2019-02-26T11:00:41.194Z,91.09
2019-02-26T11:01:41.758Z,91.66
2019-02-26T11:02:43.378Z,91.57
2019-02-26T11:03:46.447Z,91.76
2019-02-26T11:04:46.912Z,91.47
2019-02-26T11:05:52.490Z,91.57
2019-02-26T11:06:53.026Z,91.57
2019-02-26T11:07:55.748Z,91.57
2019-02-26T11:08:55.748Z,91.66
2019-02-26T11:09:58.948Z,91.57
2019-02-26T11:10:58.287Z,91.76
2019-02-26T11:12:00.818Z,91.86
2019-02-26T11:13:00.423Z,91.76
2019-02-26T11:14:00.994Z,91.96
2019-02-26T11:15:04.321Z,92.33
2019-02-26T11:16:03.232Z,93.01
2019-02-26T11:17:03.785Z,92.63
2019-02-26T11:18:04.358Z,92.43
2019-02-26T11:19:06.974Z,92.91
2019-02-26T11:20:07.749Z,92.63
2019-02-26T11:21:08.154Z,92.05
2019-02-26T11:22:08.724Z,92.00
2019-02-26T11:23:13.219Z,92.14
2019-02-26T11:24:11.350Z,92.33
2019-02-26T11:25:13.385Z,92.10
2019-02-26T11:26:15.482Z,92.00
2019-02-26T11:27:17.130Z,92.05
2019-02-26T11:28:16.624Z,92.10
2019-02-26T11:29:17.203Z,92.10
2019-02-26T11:30:20.578Z,92.38
2019-02-26T11:31:20.553Z,92.00
2019-02-26T11:32:21.017Z,91.81
2019-02-26T11:33:21.593Z,91.96
2019-02-26T11:34:22.169Z,91.71
2019-02-26T11:35:24.533Z,91.04
2019-02-26T11:36:25.137Z,91.71
2019-02-26T11:37:27.143Z,92.00
2019-02-26T11:38:27.359Z,91.81
2019-02-26T11:39:27.936Z,91.71
2019-02-26T11:40:30.570Z,91.71
2019-02-26T11:41:31.199Z,91.71
2019-02-26T11:42:31.706Z,91.13
2019-02-26T11:43:32.283Z,91.13
2019-02-26T11:44:32.868Z,91.13
2019-02-26T11:45:35.174Z,90.56
2019-02-26T11:46:35.107Z,90.56
2019-02-26T11:47:37.406Z,90.56
2019-02-26T11:48:37.249Z,90.94
2019-02-26T11:49:39.436Z,90.37
2019-02-26T11:50:41.611Z,90.17
2019-02-26T11:51:42.475Z,90.56
2019-02-26T11:52:42.536Z,91.13
2019-02-26T11:53:43.457Z,90.66
2019-02-26T11:54:44.747Z,90.46
2019-02-26T11:55:45.308Z,91.13
2019-02-26T11:56:47.435Z,91.04
2019-02-26T11:57:49.603Z,91.90
2019-02-26T11:58:49.029Z,92.10
2019-02-26T11:59:49.601Z,91.81
2019-02-26T12:00:50.796Z,92.29
2019-02-26T12:01:51.536Z,92.00
2019-02-26T12:02:52.112Z,92.48
2019-02-26T12:03:55.761Z,93.82
2019-02-26T12:04:54.886Z,94.01
2019-02-26T12:05:56.633Z,94.69
2019-02-26T12:06:58.611Z,94.31
2019-02-26T12:07:58.898Z,93.63
2019-02-26T12:08:59.457Z,94.69
2019-02-26T12:10:04.680Z,93.68
2019-02-26T12:11:04.003Z,93.01
2019-02-26T12:12:03.476Z,91.85
2019-02-26T12:13:02.940Z,90.60
2019-02-26T12:14:03.520Z,90.70
2019-02-26T12:15:04.896Z,88.59
2019-02-26T12:16:05.675Z,89.59
2019-02-26T12:17:06.255Z,90.36
2019-02-26T12:18:06.834Z,88.63
2019-02-26T12:19:10.130Z,86.04
2019-02-26T12:20:08.987Z,87.96
2019-02-26T12:21:10.541Z,86.90
2019-02-26T12:22:11.143Z,87.76
2019-02-26T12:23:14.298Z,86.22
2019-02-26T12:24:13.350Z,85.27
2019-02-26T12:25:14.020Z,87.57
2019-02-26T12:26:16.357Z,88.77
2019-02-26T12:27:18.262Z,89.15
2019-02-26T12:28:17.802Z,89.15
2019-02-26T12:29:20.474Z,88.77
2019-02-26T12:30:20.687Z,86.56
2019-02-26T12:31:21.437Z,84.44
2019-02-26T12:32:24.341Z,86.46
2019-02-26T12:33:23.642Z,88.29
2019-02-26T12:34:24.224Z,88.19
2019-02-26T12:35:24.804Z,88.29
2019-02-26T12:36:26.621Z,87.52
2019-02-26T12:37:26.960Z,88.67
2019-02-26T12:38:27.540Z,88.48
2019-02-26T12:39:31.205Z,88.77
2019-02-26T12:40:28.740Z,88.77
2019-02-26T12:41:29.368Z,88.29
2019-02-26T12:42:29.948Z,87.90
2019-02-26T12:43:32.980Z,87.42
2019-02-26T12:44:34.896Z,87.33
2019-02-26T12:45:35.137Z,87.81
2019-02-26T12:46:35.251Z,87.62
2019-02-26T12:47:35.833Z,88.19
2019-02-26T12:48:37.836Z,88.19
2019-02-26T12:49:39.153Z,88.67
2019-02-26T12:50:40.430Z,88.96
2019-02-26T12:51:41.234Z,88.48
2019-02-26T12:52:42.321Z,88.67
2019-02-26T12:53:46.100Z,88.29
2019-02-26T12:54:45.064Z,88.57
2019-02-26T12:55:45.687Z,88.96
2019-02-26T12:56:46.269Z,88.96
2019-02-26T12:57:49.746Z,89.35
2019-02-26T12:58:51.324Z,89.73
2019-02-26T12:59:50.048Z,89.54
2019-02-26T13:00:50.673Z,89.35
2019-02-26T13:01:51.914Z,89.54
2019-02-26T13:02:52.599Z,89.64
2019-02-26T13:03:54.997Z,89.64
2019-02-26T13:04:53.789Z,89.35
2019-02-26T13:05:54.370Z,89.64
2019-02-26T13:06:54.951Z,89.44
2019-02-26T13:07:55.537Z,89.44
2019-02-26T13:08:56.115Z,88.67
2019-02-26T13:10:01.020Z,88.48
2019-02-26T13:10:58.544Z,88.67
2019-02-26T13:12:02.526Z,88.67
2019-02-26T13:13:02.995Z,88.96
2019-02-26T13:14:01.338Z,88.57
2019-02-26T13:15:04.896Z,88.48
2019-02-26T13:16:03.493Z,88.29
2019-02-26T13:17:04.070Z,87.52
2019-02-26T13:18:04.650Z,86.56
2019-02-26T13:19:05.233Z,82.61
2019-02-26T13:20:11.042Z,81.94
2019-02-26T13:21:11.201Z,84.25
2019-02-26T13:22:12.587Z,85.98
2019-02-26T13:23:20.749Z,84.54
2019-02-26T13:24:17.073Z,85.88
2019-02-26T13:25:17.481Z,82.42
2019-02-26T13:26:19.587Z,85.11
2019-02-26T13:27:16.822Z,85.78
2019-02-26T13:28:17.435Z,86.56
2019-02-26T13:29:17.983Z,86.85
2019-02-26T13:30:18.614Z,86.65
2019-02-26T13:31:22.524Z,87.04
2019-02-26T13:32:21.306Z,87.23
2019-02-26T13:33:27.261Z,87.90
2019-02-26T13:34:22.963Z,87.23
2019-02-26T13:35:23.544Z,87.04
2019-02-26T13:36:24.172Z,86.75
2019-02-26T13:37:26.726Z,87.71
2019-02-26T13:38:33.953Z,87.66
2019-02-26T13:39:33.041Z,87.52
2019-02-26T13:40:28.529Z,87.62
2019-02-26T13:41:30.407Z,88.10
2019-02-26T13:42:30.675Z,87.46
2019-02-26T13:43:31.341Z,87.46
2019-02-26T13:44:31.921Z,87.71
2019-02-26T13:45:32.509Z,87.71
2019-02-26T13:46:33.083Z,87.66
2019-02-26T13:47:33.665Z,87.46
2019-02-26T13:48:34.246Z,88.19
2019-02-26T13:49:34.825Z,88.29
2019-02-26T13:50:35.407Z,88.33
2019-02-26T13:51:36.039Z,88.10
2019-02-26T13:52:36.661Z,88.39
2019-02-26T13:53:37.243Z,88.10
2019-02-26T13:54:37.830Z,87.71
2019-02-26T13:55:38.406Z,87.18
2019-02-26T13:56:39.036Z,87.76
2019-02-26T13:57:39.619Z,87.85
2019-02-26T13:58:40.199Z,88.14
2019-02-26T13:59:40.785Z,88.14
2019-02-26T14:00:41.418Z,87.85
2019-02-26T14:01:42.044Z,87.85
2019-02-26T14:02:42.626Z,87.85
2019-02-26T14:03:43.215Z,87.56
2019-02-26T14:04:43.835Z,87.76
2019-02-26T14:05:44.463Z,87.66
2019-02-26T14:06:45.046Z,87.66
2019-02-26T14:07:45.628Z,87.66